Time;durP1;ratioP1;P1;durP2;ratioP2;P2;SDS_P1;SDS_P2;PMS_P1;PMS_P2;Temp;Humidity;BMP_temperature;BMP_pressure;BME280_temperature;BME280_humidity;BME280_pressure;Samples;Min_cycle;Max_cycle;Signal;HPM_P1;HPM_P2
2022/06/09 00:00:50;;;;;;;18.17;16.38;;;;;;;;;;5136504;27;20208;-37
2022/06/09 00:03:20;;;;;;;19.65;17.35;;;;;;;;;;5119200;27;20280;-37
2022/06/09 00:05:48;;;;;;;22.75;17.98;;;;;;;;;;5136598;27;20225;-37
2022/06/09 00:08:15;;;;;;;22.55;16.63;;;;;;;;;;5118236;27;20217;-37
2022/06/09 00:10:51;;;;;;;22.13;15.63;;;;;;;;;;5136135;27;20508;-37
2022/06/09 00:13:18;;;;;;;22.67;17.33;;;;;;;;;;5136139;27;20268;-37
2022/06/09 00:15:45;;;;;;;19.35;17.35;;;;;;;;;;5136349;27;20216;-37
2022/06/09 00:18:13;;;;;;;20.90;18.20;;;;;;;;;;5136324;27;20201;-37
2022/06/09 00:20:40;;;;;;;19.42;17.38;;;;;;;;;;5135993;27;20205;-37
2022/06/09 00:23:07;;;;;;;19.20;17.23;;;;;;;;;;5135506;27;20342;-38
2022/06/09 00:25:35;;;;;;;18.73;16.85;;;;;;;;;;5135917;27;20310;-37
2022/06/09 00:28:03;;;;;;;19.45;17.25;;;;;;;;;;5136141;27;20229;-38
2022/06/09 00:30:30;;;;;;;19.70;17.70;;;;;;;;;;5136212;27;20280;-37
2022/06/09 00:32:57;;;;;;;24.42;17.90;;;;;;;;;;5135968;27;20200;-37
2022/06/09 00:35:24;;;;;;;21.60;18.58;;;;;;;;;;5135794;27;20201;-37
2022/06/09 00:37:51;;;;;;;21.58;17.42;;;;;;;;;;5118241;27;20280;-37
2022/06/09 00:40:19;;;;;;;21.08;18.88;;;;;;;;;;5135747;27;20629;-37
2022/06/09 00:42:46;;;;;;;20.63;18.63;;;;;;;;;;5136199;27;20201;-37
2022/06/09 00:45:35;;;;;;;22.70;19.35;;;;;;;;;;5135942;28;20197;-37
2022/06/09 00:48:05;;;;;;;23.95;18.38;;;;;;;;;;5136382;28;20197;-37
2022/06/09 00:50:34;;;;;;;20.42;17.25;;;;;;;;;;5135610;28;20649;-37
2022/06/09 00:53:03;;;;;;;20.05;18.00;;;;;;;;;;5118035;28;20649;-37
2022/06/09 00:55:32;;;;;;;21.05;17.40;;;;;;;;;;5118505;28;20197;-38
2022/06/09 00:58:08;;;;;;;21.05;17.63;;;;;;;;;;5118150;28;20300;-37
2022/06/09 01:00:52;;;;;;;20.83;16.73;;;;;;;;;;5135919;28;20189;-37
2022/06/09 01:03:22;;;;;;;20.17;16.10;;;;;;;;;;5117776;28;20189;-37
2022/06/09 01:05:51;;;;;;;17.95;16.05;;;;;;;;;;5135703;28;20689;-37
2022/06/09 01:08:25;;;;;;;21.27;17.58;;;;;;;;;;5119084;28;20581;-38
2022/06/09 01:10:52;;;;;;;20.38;15.80;;;;;;;;;;5118239;28;20232;-37
2022/06/09 01:13:20;;;;;;;20.30;16.67;;;;;;;;;;5135882;28;20207;-38
2022/06/09 01:15:56;;;;;;;23.25;15.55;;;;;;;;;;5135709;28;20242;-37
2022/06/09 01:18:43;;;;;;;18.45;16.58;;;;;;;;;;5117677;28;20185;-37
2022/06/09 01:21:31;;;;;;;19.88;16.90;;;;;;;;;;5135281;28;20201;-37
2022/06/09 01:24:11;;;;;;;19.58;17.33;;;;;;;;;;5135683;28;20194;-38
2022/06/09 01:26:58;;;;;;;17.77;15.98;;;;;;;;;;5118091;28;20193;-37
2022/06/09 01:29:46;;;;;;;19.85;17.50;;;;;;;;;;5135143;28;20547;-38
2022/06/09 01:32:20;;;;;;;18.80;16.98;;;;;;;;;;5135179;28;20200;-40
2022/06/09 01:34:55;;;;;;;20.75;17.70;;;;;;;;;;5120279;27;20192;-37
2022/06/09 01:37:27;;;;;;;24.42;17.20;;;;;;;;;;5121240;27;20689;-38
2022/06/09 01:40:01;;;;;;;20.67;18.48;;;;;;;;;;5121706;27;20208;-39
2022/06/09 01:42:34;;;;;;;23.92;18.52;;;;;;;;;;5138769;27;20193;-37
2022/06/09 01:45:21;;;;;;;24.05;19.35;;;;;;;;;;5139058;27;20522;-37
2022/06/09 01:48:13;;;;;;;19.10;17.10;;;;;;;;;;5120886;27;20646;-38
2022/06/09 01:50:48;;;;;;;16.90;15.10;;;;;;;;;;5139117;27;20197;-37
2022/06/09 01:53:39;;;;;;;19.98;16.10;;;;;;;;;;5121022;27;20268;-37
2022/06/09 01:56:34;;;;;;;19.95;17.08;;;;;;;;;;5138882;27;20192;-37
2022/06/09 01:59:09;;;;;;;22.42;18.85;;;;;;;;;;5128853;27;20290;-38
2022/06/09 02:01:44;;;;;;;18.13;15.90;;;;;;;;;;5121705;27;20200;-37
2022/06/09 02:04:15;;;;;;;20.50;16.17;;;;;;;;;;5120913;27;20190;-38
2022/06/09 02:06:43;;;;;;;22.48;16.60;;;;;;;;;;5120887;27;20236;-38
2022/06/09 02:09:10;;;;;;;19.42;17.33;;;;;;;;;;5120337;27;20711;-39
2022/06/09 02:11:50;;;;;;;19.88;15.30;;;;;;;;;;5138263;27;20546;-38
2022/06/09 02:14:18;;;;;;;26.88;15.38;;;;;;;;;;5138185;27;20629;-38
2022/06/09 02:16:44;;;;;;;24.40;16.45;;;;;;;;;;5138391;27;20234;-38
2022/06/09 02:19:12;;;;;;;22.65;16.63;;;;;;;;;;5120797;27;20209;-38
2022/06/09 02:21:40;;;;;;;17.80;15.85;;;;;;;;;;5138031;27;20895;-37
2022/06/09 02:24:07;;;;;;;17.52;15.63;;;;;;;;;;5137928;27;20584;-38
2022/06/09 02:26:34;;;;;;;20.17;15.57;;;;;;;;;;5138184;27;20513;-39
2022/06/09 02:29:02;;;;;;;19.27;15.63;;;;;;;;;;5138224;27;20229;-38
2022/06/09 02:31:29;;;;;;;22.73;15.68;;;;;;;;;;5138119;27;20621;-38
2022/06/09 02:33:56;;;;;;;24.60;16.55;;;;;;;;;;5138110;27;20205;-37
2022/06/09 02:36:24;;;;;;;26.23;16.77;;;;;;;;;;5138013;27;20642;-37
2022/06/09 02:38:51;;;;;;;25.83;15.98;;;;;;;;;;5138200;27;20269;-39
2022/06/09 02:41:18;;;;;;;18.27;14.77;;;;;;;;;;5138290;27;20583;-37
2022/06/09 02:43:45;;;;;;;16.27;13.73;;;;;;;;;;5138348;27;20208;-37
2022/06/09 02:46:12;;;;;;;17.38;13.80;;;;;;;;;;5137449;27;20213;-37
2022/06/09 02:48:40;;;;;;;23.75;14.55;;;;;;;;;;5137616;27;20205;-38
2022/06/09 02:51:29;;;;;;;23.58;15.82;;;;;;;;;;5137690;27;20202;-37
2022/06/09 02:53:59;;;;;;;24.02;14.85;;;;;;;;;;5137976;27;20181;-37
2022/06/09 02:56:27;;;;;;;19.85;16.02;;;;;;;;;;5138137;27;20189;-38
2022/06/09 02:58:56;;;;;;;20.20;17.48;;;;;;;;;;5119753;27;20262;-37
2022/06/09 03:01:24;;;;;;;22.75;19.85;;;;;;;;;;5137352;27;20698;-37
2022/06/09 03:03:52;;;;;;;20.98;17.80;;;;;;;;;;5137650;27;20265;-37
2022/06/09 03:06:20;;;;;;;18.75;16.75;;;;;;;;;;5137750;27;20233;-37
2022/06/09 03:08:48;;;;;;;21.80;15.40;;;;;;;;;;5137512;27;20193;-37
2022/06/09 03:11:15;;;;;;;25.83;14.85;;;;;;;;;;5137365;27;20205;-38
2022/06/09 03:13:43;;;;;;;17.10;14.88;;;;;;;;;;5137683;27;20208;-37
2022/06/09 03:16:13;;;;;;;16.88;15.10;;;;;;;;;;5137133;27;20205;-37
2022/06/09 03:18:41;;;;;;;19.95;15.43;;;;;;;;;;5137174;27;20540;-38
2022/06/09 03:21:08;;;;;;;20.23;16.65;;;;;;;;;;5137607;27;20316;-40
2022/06/09 03:23:35;;;;;;;21.73;16.33;;;;;;;;;;5137354;27;20270;-37
2022/06/09 03:26:02;;;;;;;17.38;15.50;;;;;;;;;;5137272;27;20525;-38
2022/06/09 03:28:29;;;;;;;19.95;15.55;;;;;;;;;;5137442;27;20197;-37
2022/06/09 03:30:58;;;;;;;18.75;15.68;;;;;;;;;;5137068;27;20232;-37
2022/06/09 03:33:25;;;;;;;17.88;16.00;;;;;;;;;;5136652;27;20205;-37
2022/06/09 03:35:52;;;;;;;20.00;16.00;;;;;;;;;;5136751;27;20197;-37
2022/06/09 03:38:19;;;;;;;19.85;16.55;;;;;;;;;;5137041;27;20209;-37
2022/06/09 03:40:47;;;;;;;21.02;17.42;;;;;;;;;;5136879;27;20270;-37
2022/06/09 03:43:13;;;;;;;23.90;19.17;;;;;;;;;;5136782;27;20201;-37
2022/06/09 03:45:40;;;;;;;25.33;19.88;;;;;;;;;;5136835;27;20296;-37
2022/06/09 03:48:08;;;;;;;29.42;19.17;;;;;;;;;;5118759;27;20623;-38
2022/06/09 03:50:34;;;;;;;22.05;19.67;;;;;;;;;;5136675;27;20224;-38
2022/06/09 03:53:02;;;;;;;25.30;21.48;;;;;;;;;;5136441;27;20212;-37
2022/06/09 03:55:30;;;;;;;23.48;20.92;;;;;;;;;;5136689;27;20201;-37
2022/06/09 03:57:56;;;;;;;25.30;21.67;;;;;;;;;;5136240;27;20201;-38
2022/06/09 04:00:27;;;;;;;27.90;21.90;;;;;;;;;;5136136;27;20531;-38
2022/06/09 04:02:54;;;;;;;25.05;22.40;;;;;;;;;;5136340;27;20193;-38
2022/06/09 04:05:21;;;;;;;25.42;22.70;;;;;;;;;;5136182;27;20290;-37
2022/06/09 04:07:49;;;;;;;24.98;22.30;;;;;;;;;;5118937;27;20197;-39
2022/06/09 04:10:19;;;;;;;25.83;23.20;;;;;;;;;;5118625;27;20221;-38
2022/06/09 04:12:46;;;;;;;26.98;23.98;;;;;;;;;;5138052;27;20247;-38
2022/06/09 04:15:15;;;;;;;27.35;23.63;;;;;;;;;;5129889;27;20228;-38
2022/06/09 04:17:44;;;;;;;27.45;24.58;;;;;;;;;;5135264;27;20681;-37
2022/06/09 04:20:12;;;;;;;27.73;24.88;;;;;;;;;;5135123;27;20229;-38
2022/06/09 04:22:39;;;;;;;28.52;24.73;;;;;;;;;;5135299;27;20229;-39
2022/06/09 04:25:14;;;;;;;28.58;24.98;;;;;;;;;;5134880;27;20235;-38
2022/06/09 04:27:41;;;;;;;34.40;26.08;;;;;;;;;;5135501;27;20233;-39
2022/06/09 04:30:09;;;;;;;28.35;25.50;;;;;;;;;;5134556;27;20558;-38
2022/06/09 04:32:36;;;;;;;30.20;26.23;;;;;;;;;;5135190;27;20738;-37
2022/06/09 04:35:04;;;;;;;28.88;25.83;;;;;;;;;;5135121;27;20690;-37
2022/06/09 04:40:17;;;;;;;31.65;25.98;;;;;;;;;;5134269;27;20684;-38
2022/06/09 04:42:44;;;;;;;29.10;26.10;;;;;;;;;;5135538;27;20554;-39
2022/06/09 04:45:11;;;;;;;29.17;25.50;;;;;;;;;;5133159;28;20550;-38
2022/06/09 04:47:38;;;;;;;28.73;25.70;;;;;;;;;;5135051;28;20221;-37
2022/06/09 04:50:05;;;;;;;28.02;24.77;;;;;;;;;;5135107;28;20237;-39
2022/06/09 04:52:32;;;;;;;26.33;23.58;;;;;;;;;;5135002;28;20241;-38
2022/06/09 04:54:59;;;;;;;25.25;20.55;;;;;;;;;;5135017;28;20236;-37
2022/06/09 04:57:26;;;;;;;24.08;21.05;;;;;;;;;;5134673;28;20221;-38
2022/06/09 04:59:53;;;;;;;26.80;20.60;;;;;;;;;;5134355;28;20225;-37
2022/06/09 05:02:21;;;;;;;23.25;20.17;;;;;;;;;;5135014;28;20294;-37
2022/06/09 05:04:48;;;;;;;21.83;19.05;;;;;;;;;;5134583;28;20324;-38
2022/06/09 05:07:15;;;;;;;24.67;18.98;;;;;;;;;;5134940;28;20225;-37
2022/06/09 05:09:42;;;;;;;21.55;18.63;;;;;;;;;;5136897;27;20244;-38
2022/06/09 05:12:09;;;;;;;22.05;19.02;;;;;;;;;;5139196;27;20258;-39
2022/06/09 05:14:36;;;;;;;20.98;18.65;;;;;;;;;;5138714;27;20221;-37
2022/06/09 05:17:03;;;;;;;22.23;19.75;;;;;;;;;;5139207;27;20221;-38
2022/06/09 05:19:30;;;;;;;23.70;19.80;;;;;;;;;;5138507;27;20696;-40
2022/06/09 05:21:57;;;;;;;22.10;19.88;;;;;;;;;;5138859;27;20217;-37
2022/06/09 05:24:25;;;;;;;21.23;18.88;;;;;;;;;;5138785;27;20308;-37
2022/06/09 05:26:52;;;;;;;21.55;19.25;;;;;;;;;;5138709;27;20218;-37
2022/06/09 05:29:19;;;;;;;21.42;19.02;;;;;;;;;;5137684;27;20229;-38
2022/06/09 05:31:46;;;;;;;22.98;19.05;;;;;;;;;;5138772;27;20244;-38
2022/06/09 05:34:13;;;;;;;20.67;18.45;;;;;;;;;;5139153;27;20221;-37
2022/06/09 05:36:40;;;;;;;21.73;18.70;;;;;;;;;;5139858;27;20209;-38
2022/06/09 05:44:52;;;;;;;21.63;18.20;;;;;;;;;;5139432;27;20189;-37
2022/06/09 05:47:20;;;;;;;21.55;19.13;;;;;;;;;;5139867;27;20185;-38
2022/06/09 05:49:48;;;;;;;21.55;19.25;;;;;;;;;;5139198;27;20213;-38
2022/06/09 05:52:17;;;;;;;22.48;18.83;;;;;;;;;;5121525;27;20197;-38
2022/06/09 05:54:44;;;;;;;20.75;17.77;;;;;;;;;;5121359;27;20286;-38
2022/06/09 05:57:11;;;;;;;20.58;18.38;;;;;;;;;;5139241;27;20203;-38
2022/06/09 05:59:38;;;;;;;19.92;17.52;;;;;;;;;;5138908;27;20254;-39
2022/06/09 06:02:08;;;;;;;20.98;18.50;;;;;;;;;;5138646;27;20718;-38
2022/06/09 06:04:35;;;;;;;21.08;17.65;;;;;;;;;;5138529;27;20206;-37
2022/06/09 06:07:02;;;;;;;25.20;17.17;;;;;;;;;;5139003;27;20234;-37
2022/06/09 06:09:29;;;;;;;21.42;17.23;;;;;;;;;;5138727;27;20193;-37
2022/06/09 06:11:56;;;;;;;19.27;16.65;;;;;;;;;;5138825;27;20269;-37
2022/06/09 06:14:23;;;;;;;19.33;17.33;;;;;;;;;;5139244;27;20206;-38
2022/06/09 06:16:50;;;;;;;17.95;15.73;;;;;;;;;;5138612;27;20686;-38
2022/06/09 06:19:18;;;;;;;19.38;15.75;;;;;;;;;;5138661;27;20205;-37
2022/06/09 06:21:47;;;;;;;18.45;14.77;;;;;;;;;;5137397;27;20197;-40
2022/06/09 06:24:14;;;;;;;19.00;14.90;;;;;;;;;;5138588;27;20255;-38
2022/06/09 06:26:42;;;;;;;16.65;14.68;;;;;;;;;;5139062;27;20201;-38
2022/06/09 06:29:18;;;;;;;16.50;14.80;;;;;;;;;;5138465;27;20294;-37
2022/06/09 06:31:45;;;;;;;20.65;15.55;;;;;;;;;;5138618;27;20209;-37
2022/06/09 06:34:12;;;;;;;15.38;13.77;;;;;;;;;;5138323;27;20197;-38
2022/06/09 06:36:39;;;;;;;16.38;13.43;;;;;;;;;;5138389;27;20229;-38
2022/06/09 06:39:06;;;;;;;14.38;12.85;;;;;;;;;;5138722;27;20197;-38
2022/06/09 06:41:33;;;;;;;18.30;13.23;;;;;;;;;;5120415;27;20215;-38
2022/06/09 06:44:00;;;;;;;13.95;12.40;;;;;;;;;;5137945;27;20209;-38
2022/06/09 06:46:28;;;;;;;17.40;12.55;;;;;;;;;;5137812;27;20533;-38
2022/06/09 06:48:55;;;;;;;18.83;12.52;;;;;;;;;;5138039;27;20545;-38
2022/06/09 06:51:23;;;;;;;14.80;10.57;;;;;;;;;;5138684;27;20217;-38
2022/06/09 06:53:50;;;;;;;12.52;11.25;;;;;;;;;;5137987;27;20228;-40
2022/06/09 06:56:17;;;;;;;16.45;12.15;;;;;;;;;;5138437;27;20193;-38
2022/06/09 06:58:44;;;;;;;14.65;11.55;;;;;;;;;;5137874;27;20204;-37
2022/06/09 07:01:11;;;;;;;17.70;10.32;;;;;;;;;;5137667;27;20209;-38
2022/06/09 07:03:39;;;;;;;17.05;10.65;;;;;;;;;;5137436;27;20614;-39
2022/06/09 07:06:08;;;;;;;15.60;10.93;;;;;;;;;;5137835;27;20286;-38
2022/06/09 07:08:35;;;;;;;16.50;11.13;;;;;;;;;;5137643;27;20205;-38
2022/06/09 07:11:04;;;;;;;15.05;11.32;;;;;;;;;;5137536;27;20245;-38
2022/06/09 07:13:31;;;;;;;12.70;10.98;;;;;;;;;;5137606;27;20201;-37
2022/06/09 07:15:58;;;;;;;14.48;10.23;;;;;;;;;;5137773;27;20201;-38
2022/06/09 07:18:30;;;;;;;14.60;10.68;;;;;;;;;;5137486;27;20194;-38
2022/06/09 07:20:58;;;;;;;11.57;10.38;;;;;;;;;;5137279;27;20190;-39
2022/06/09 07:23:26;;;;;;;11.95;9.43;;;;;;;;;;5119737;27;20262;-37
2022/06/09 07:25:54;;;;;;;11.70;9.48;;;;;;;;;;5137433;27;20197;-38
2022/06/09 07:28:21;;;;;;;10.75;8.70;;;;;;;;;;5137341;27;20197;-38
2022/06/09 07:30:49;;;;;;;13.38;9.35;;;;;;;;;;5136820;27;20670;-38
2022/06/09 07:33:16;;;;;;;21.38;8.70;;;;;;;;;;5137366;27;20220;-37
2022/06/09 07:35:43;;;;;;;18.95;8.48;;;;;;;;;;5136778;27;20630;-37
2022/06/09 07:38:11;;;;;;;15.27;8.32;;;;;;;;;;5137149;27;20209;-37
2022/06/09 07:40:39;;;;;;;12.05;8.10;;;;;;;;;;5136752;27;20268;-38
2022/06/09 07:43:06;;;;;;;13.80;7.60;;;;;;;;;;5137067;27;20278;-39
2022/06/09 07:45:35;;;;;;;13.30;7.78;;;;;;;;;;5136953;27;20201;-37
2022/06/09 07:48:02;;;;;;;12.85;8.02;;;;;;;;;;5137121;27;20221;-38
2022/06/09 07:50:30;;;;;;;15.90;7.82;;;;;;;;;;5136759;27;20232;-37
2022/06/09 07:52:58;;;;;;;13.27;7.13;;;;;;;;;;5119220;27;20201;-37
2022/06/09 07:55:25;;;;;;;8.95;8.05;;;;;;;;;;5136864;27;20213;-37
2022/06/09 07:57:53;;;;;;;14.57;7.88;;;;;;;;;;5136750;27;20216;-38
2022/06/09 08:00:22;;;;;;;13.25;8.05;;;;;;;;;;5136830;27;20193;-37
2022/06/09 08:02:50;;;;;;;15.60;8.13;;;;;;;;;;5136634;27;20204;-37
2022/06/09 08:05:18;;;;;;;13.60;7.47;;;;;;;;;;5136603;27;20236;-37
2022/06/09 08:07:46;;;;;;;11.43;7.60;;;;;;;;;;5136491;27;20249;-38
2022/06/09 08:10:17;;;;;;;15.93;7.82;;;;;;;;;;5136495;27;20275;-37
2022/06/09 08:12:47;;;;;;;12.18;7.93;;;;;;;;;;5137235;27;20190;-37
2022/06/09 08:15:15;;;;;;;12.13;6.25;;;;;;;;;;5136439;27;20197;-37
2022/06/09 08:17:42;;;;;;;11.95;6.38;;;;;;;;;;5136432;27;20205;-37
2022/06/09 08:20:10;;;;;;;17.75;6.90;;;;;;;;;;5136320;27;20224;-37
2022/06/09 08:22:52;;;;;;;11.52;6.60;;;;;;;;;;5056763;28;20211;-37
2022/06/09 08:25:21;;;;;;;9.80;5.60;;;;;;;;;;5073775;28;20568;-38
2022/06/09 08:27:48;;;;;;;9.95;6.22;;;;;;;;;;5073266;28;20199;-37
2022/06/09 08:30:17;;;;;;;12.18;5.88;;;;;;;;;;5073127;28;20659;-38
2022/06/09 08:32:44;;;;;;;9.85;5.40;;;;;;;;;;5073163;28;20203;-37
2022/06/09 08:35:16;;;;;;;13.68;6.05;;;;;;;;;;5073095;28;20214;-38
2022/06/09 08:37:48;;;;;;;13.65;6.10;;;;;;;;;;5073930;28;20266;-37
2022/06/09 08:40:20;;;;;;;14.07;5.85;;;;;;;;;;5057142;28;20218;-37
2022/06/09 08:43:07;;;;;;;12.05;5.07;;;;;;;;;;5073213;28;20519;-37
2022/06/09 08:45:37;;;;;;;13.23;5.07;;;;;;;;;;5073100;28;20188;-37
2022/06/09 08:48:08;;;;;;;12.13;4.53;;;;;;;;;;5073502;28;20195;-38
2022/06/09 08:50:41;;;;;;;8.25;4.35;;;;;;;;;;5056766;28;20633;-37
2022/06/09 08:53:12;;;;;;;9.85;4.90;;;;;;;;;;5072340;28;20209;-37
2022/06/09 08:55:43;;;;;;;9.65;4.57;;;;;;;;;;5136047;28;20270;-37
2022/06/09 08:58:29;;;;;;;6.95;4.78;;;;;;;;;;5136032;28;20207;-37
2022/06/09 09:01:03;;;;;;;7.13;4.50;;;;;;;;;;5135798;28;20209;-38
2022/06/09 09:03:35;;;;;;;10.48;4.50;;;;;;;;;;5135956;28;20193;-38
2022/06/09 09:06:26;;;;;;;10.35;4.88;;;;;;;;;;5135450;28;20769;-39
2022/06/09 09:09:22;;;;;;;11.20;4.00;;;;;;;;;;5135565;28;20210;-38
2022/06/09 09:12:07;;;;;;;9.10;4.15;;;;;;;;;;5135420;28;20209;-37
2022/06/09 09:14:42;;;;;;;8.63;4.45;;;;;;;;;;5135933;28;20196;-38
2022/06/09 09:17:31;;;;;;;11.32;3.75;;;;;;;;;;5135852;28;20197;-38
2022/06/09 09:19:58;;;;;;;11.05;4.00;;;;;;;;;;5135921;28;20192;-38
2022/06/09 09:22:39;;;;;;;6.22;3.75;;;;;;;;;;5135767;28;20200;-37
2022/06/09 09:25:13;;;;;;;6.13;3.35;;;;;;;;;;5135763;28;20184;-38
2022/06/09 09:27:52;;;;;;;6.95;3.40;;;;;;;;;;5136403;28;20216;-37
2022/06/09 09:30:25;;;;;;;9.20;3.33;;;;;;;;;;5135364;28;20181;-37
2022/06/09 09:32:54;;;;;;;7.55;3.13;;;;;;;;;;5117569;28;20186;-37
2022/06/09 09:35:40;;;;;;;7.60;3.22;;;;;;;;;;5135944;28;20520;-38
2022/06/09 09:38:09;;;;;;;5.03;3.05;;;;;;;;;;5118669;28;20185;-37
2022/06/09 09:40:42;;;;;;;6.55;3.30;;;;;;;;;;5135139;28;20205;-37
2022/06/09 09:43:17;;;;;;;7.50;3.20;;;;;;;;;;5135962;28;20276;-38
2022/06/09 09:45:54;;;;;;;4.30;2.17;;;;;;;;;;5117564;28;20197;-37
2022/06/09 09:48:21;;;;;;;4.35;3.00;;;;;;;;;;5117851;28;20193;-37
2022/06/09 09:51:00;;;;;;;5.75;2.60;;;;;;;;;;5135345;28;20228;-37
2022/06/09 09:53:34;;;;;;;9.00;2.67;;;;;;;;;;5135444;28;20250;-37
2022/06/09 09:56:31;;;;;;;4.15;2.72;;;;;;;;;;5137984;27;20185;-38
2022/06/09 09:59:00;;;;;;;9.60;2.80;;;;;;;;;;5139282;27;20201;-38
2022/06/09 10:10:57;;;;;;;7.00;2.63;;;;;;;;;;5138435;27;20220;-37
2022/06/09 10:13:31;;;;;;;6.40;2.83;;;;;;;;;;5138724;27;20209;-38
2022/06/09 10:16:03;;;;;;;5.70;2.63;;;;;;;;;;5138939;27;20185;-37
2022/06/09 10:18:52;;;;;;;7.10;2.90;;;;;;;;;;5138430;27;20622;-38
2022/06/09 10:21:54;;;;;;;4.55;3.00;;;;;;;;;;5138357;27;20203;-38
2022/06/09 10:25:00;;;;;;;7.32;3.78;;;;;;;;;;5139166;27;20204;-38
2022/06/09 10:27:33;;;;;;;8.70;3.05;;;;;;;;;;5138261;27;20638;-38
2022/06/09 10:30:20;;;;;;;6.22;2.75;;;;;;;;;;5120735;27;20196;-38
2022/06/09 10:33:10;;;;;;;5.70;3.28;;;;;;;;;;5121115;27;20217;-37
2022/06/09 10:35:52;;;;;;;12.90;3.90;;;;;;;;;;5121152;27;20204;-37
2022/06/09 10:38:31;;;;;;;6.30;2.80;;;;;;;;;;5120488;27;20189;-38
2022/06/09 10:41:04;;;;;;;4.85;2.65;;;;;;;;;;5120474;27;20193;-39
2022/06/09 10:43:34;;;;;;;4.15;2.72;;;;;;;;;;5138623;27;20238;-38
2022/06/09 10:46:35;;;;;;;4.65;2.67;;;;;;;;;;5138348;27;20177;-38
2022/06/09 10:55:27;;;;;;;9.05;3.47;;;;;;;;;;5122933;27;20220;-38
2022/06/09 10:58:23;;;;;;;6.80;2.95;;;;;;;;;;5138239;27;20192;-38
2022/06/09 11:00:51;;;;;;;5.20;3.15;;;;;;;;;;5137407;27;20642;-38
2022/06/09 11:03:39;;;;;;;5.45;2.85;;;;;;;;;;5137809;27;20547;-40
2022/06/09 11:06:24;;;;;;;8.35;2.83;;;;;;;;;;5137402;27;20239;-38
2022/06/09 11:09:06;;;;;;;4.00;2.60;;;;;;;;;;5137458;27;20246;-38
2022/06/09 11:11:46;;;;;;;8.32;3.05;;;;;;;;;;5137631;27;20235;-38
2022/06/09 11:14:40;;;;;;;3.80;2.50;;;;;;;;;;5138229;27;20201;-37
2022/06/09 11:17:06;;;;;;;6.35;2.65;;;;;;;;;;5137269;27;20558;-38
2022/06/09 11:20:12;;;;;;;6.95;3.08;;;;;;;;;;5137513;27;20213;-38
2022/06/09 11:22:42;;;;;;;5.63;2.70;;;;;;;;;;5133301;27;20204;-39
2022/06/09 11:25:33;;;;;;;10.73;2.85;;;;;;;;;;5137410;27;20189;-37
2022/06/09 11:28:34;;;;;;;12.75;2.95;;;;;;;;;;5137509;27;20185;-38
2022/06/09 11:31:39;;;;;;;4.53;2.83;;;;;;;;;;5119153;27;20526;-38
2022/06/09 11:34:29;;;;;;;6.43;2.72;;;;;;;;;;5119257;27;20670;-37
2022/06/09 11:37:06;;;;;;;8.32;3.00;;;;;;;;;;5136911;27;20250;-38
2022/06/09 11:39:43;;;;;;;5.07;2.75;;;;;;;;;;5137131;27;20289;-38
2022/06/09 11:42:46;;;;;;;6.38;2.90;;;;;;;;;;5136563;27;20598;-38
2022/06/09 11:45:18;;;;;;;12.88;3.30;;;;;;;;;;5055392;28;20273;-37
2022/06/09 11:47:46;;;;;;;4.95;2.50;;;;;;;;;;5124881;27;20228;-38
2022/06/09 11:50:17;;;;;;;5.28;2.80;;;;;;;;;;5135577;27;20239;-38
2022/06/09 11:52:47;;;;;;;4.68;2.63;;;;;;;;;;5135880;27;20233;-43
2022/06/09 11:58:34;;;;;;;5.70;2.50;;;;;;;;;;5125258;27;20209;-46
2022/06/09 12:01:32;;;;;;;4.80;2.30;;;;;;;;;;5129956;27;20189;-41
2022/06/09 12:04:16;;;;;;;7.05;3.20;;;;;;;;;;5132414;27;20181;-42
2022/06/09 12:07:10;;;;;;;5.55;3.22;;;;;;;;;;5113201;28;20291;-41
2022/06/09 12:09:44;;;;;;;13.10;3.35;;;;;;;;;;5114462;28;20181;-43
2022/06/09 12:12:31;;;;;;;9.50;2.83;;;;;;;;;;5114913;28;20216;-43
2022/06/09 12:15:19;;;;;;;10.68;2.80;;;;;;;;;;5107668;28;20637;-42
2022/06/09 12:18:12;;;;;;;4.05;2.75;;;;;;;;;;5111882;28;20220;-41
2022/06/09 12:20:56;;;;;;;3.38;2.17;;;;;;;;;;5106079;28;20518;-42
2022/06/09 12:24:14;;;;;;;6.50;2.53;;;;;;;;;;5113912;28;20645;-41
2022/06/09 12:26:42;;;;;;;6.00;2.42;;;;;;;;;;5115621;28;20276;-42
2022/06/09 12:29:17;;;;;;;8.65;2.67;;;;;;;;;;5115391;28;20217;-41
2022/06/09 12:32:07;;;;;;;5.05;2.80;;;;;;;;;;5115274;28;20249;-42
2022/06/09 12:34:43;;;;;;;5.20;2.72;;;;;;;;;;5085877;28;20201;-42
2022/06/09 12:37:32;;;;;;;3.53;2.63;;;;;;;;;;5112605;28;20189;-40
2022/06/09 12:40:13;;;;;;;5.50;2.65;;;;;;;;;;5108758;28;20318;-38
2022/06/09 12:42:48;;;;;;;6.20;2.55;;;;;;;;;;5110999;28;20498;-39
2022/06/09 12:45:20;;;;;;;7.93;2.65;;;;;;;;;;5115285;28;20193;-38
2022/06/09 12:48:10;;;;;;;7.03;2.70;;;;;;;;;;5115845;28;20198;-37
2022/06/09 12:50:42;;;;;;;6.80;2.90;;;;;;;;;;5115401;28;20202;-38
2022/06/09 12:53:17;;;;;;;5.82;2.67;;;;;;;;;;5114144;28;20656;-38
2022/06/09 12:55:51;;;;;;;9.48;3.00;;;;;;;;;;5112806;28;20205;-39
2022/06/09 12:58:26;;;;;;;5.63;2.60;;;;;;;;;;5113694;28;20217;-39
2022/06/09 13:01:01;;;;;;;14.38;2.65;;;;;;;;;;5111837;28;20221;-41
2022/06/09 13:03:40;;;;;;;6.57;2.92;;;;;;;;;;5113094;28;20210;-38
2022/06/09 13:06:32;;;;;;;5.68;2.63;;;;;;;;;;5123434;27;20236;-38
2022/06/09 13:09:03;;;;;;;16.98;3.00;;;;;;;;;;5130765;28;20589;-39
2022/06/09 13:14:29;;;;;;;11.60;2.72;;;;;;;;;;5130231;28;20225;-41
2022/06/09 13:17:01;;;;;;;7.72;2.67;;;;;;;;;;5113874;28;20578;-42
2022/06/09 13:19:30;;;;;;;10.30;2.60;;;;;;;;;;5138442;27;20208;-42
2022/06/09 13:21:59;;;;;;;4.38;2.70;;;;;;;;;;5137023;27;20573;-42
2022/06/09 13:24:30;;;;;;;9.15;2.80;;;;;;;;;;5134311;27;20217;-40
2022/06/09 13:26:58;;;;;;;3.90;2.58;;;;;;;;;;5116215;28;20229;-42
2022/06/09 13:29:36;;;;;;;10.35;2.70;;;;;;;;;;5116714;27;20232;-43
2022/06/09 13:32:23;;;;;;;7.05;2.80;;;;;;;;;;5134641;27;20225;-42
2022/06/09 13:34:54;;;;;;;8.55;2.63;;;;;;;;;;5135410;27;20221;-42
2022/06/09 13:37:39;;;;;;;6.22;2.72;;;;;;;;;;5136762;27;20300;-42
2022/06/09 13:40:06;;;;;;;5.75;2.95;;;;;;;;;;5135464;27;20224;-42
2022/06/09 13:42:51;;;;;;;4.40;2.55;;;;;;;;;;5118816;27;20654;-42
2022/06/09 13:45:25;;;;;;;7.20;2.70;;;;;;;;;;5117655;27;20232;-42
2022/06/09 13:48:13;;;;;;;4.47;3.00;;;;;;;;;;5117274;27;20303;-43
2022/06/09 13:50:44;;;;;;;9.95;2.90;;;;;;;;;;5135171;27;20217;-42
2022/06/09 13:53:29;;;;;;;9.32;2.90;;;;;;;;;;5137727;27;20422;-43
2022/06/09 13:55:56;;;;;;;6.45;3.15;;;;;;;;;;5135872;27;20225;-43
2022/06/09 13:58:24;;;;;;;7.63;3.45;;;;;;;;;;5129108;27;20238;-42
2022/06/09 14:00:53;;;;;;;6.72;2.80;;;;;;;;;;5117506;28;20298;-41
2022/06/09 14:03:24;;;;;;;7.95;2.90;;;;;;;;;;5103670;27;20221;-42
2022/06/09 14:05:54;;;;;;;7.15;2.80;;;;;;;;;;5117068;28;20685;-41
2022/06/09 14:08:22;;;;;;;4.68;2.38;;;;;;;;;;5127711;27;20227;-40
2022/06/09 14:10:49;;;;;;;6.50;2.50;;;;;;;;;;5136303;27;20228;-41
2022/06/09 14:13:18;;;;;;;4.00;2.53;;;;;;;;;;5136311;27;20315;-42
2022/06/09 14:15:46;;;;;;;8.48;2.80;;;;;;;;;;5136934;27;20248;-42
2022/06/09 14:18:18;;;;;;;7.18;2.88;;;;;;;;;;5114064;27;20218;-41
2022/06/09 14:20:45;;;;;;;7.57;3.03;;;;;;;;;;5117375;27;20236;-40
2022/06/09 14:23:21;;;;;;;5.93;2.55;;;;;;;;;;5131014;27;20222;-41
2022/06/09 14:25:52;;;;;;;9.80;3.10;;;;;;;;;;5137053;27;20225;-41
2022/06/09 14:28:19;;;;;;;5.57;2.90;;;;;;;;;;5111168;27;20294;-43
2022/06/09 14:30:46;;;;;;;10.45;3.03;;;;;;;;;;5116758;28;20226;-41
2022/06/09 14:33:14;;;;;;;8.38;3.47;;;;;;;;;;5119263;27;20306;-44
2022/06/09 14:35:42;;;;;;;10.73;3.30;;;;;;;;;;5116463;28;20226;-41
2022/06/09 14:38:14;;;;;;;13.55;3.28;;;;;;;;;;5134104;27;20210;-46
2022/06/09 14:40:45;;;;;;;6.30;2.90;;;;;;;;;;5140562;27;20225;-39
2022/06/09 14:43:12;;;;;;;7.93;3.03;;;;;;;;;;5135763;27;20292;-44
2022/06/09 14:45:40;;;;;;;8.10;2.75;;;;;;;;;;5136103;27;20209;-41
2022/06/09 14:48:13;;;;;;;9.10;3.20;;;;;;;;;;5116373;27;20526;-41
2022/06/09 14:50:40;;;;;;;5.53;3.03;;;;;;;;;;5131256;27;20247;-39
2022/06/09 14:53:07;;;;;;;7.25;3.00;;;;;;;;;;5136458;27;20301;-39
2022/06/09 14:55:37;;;;;;;7.88;2.72;;;;;;;;;;5132317;27;20229;-47
2022/06/09 14:58:04;;;;;;;5.78;2.70;;;;;;;;;;5115776;27;20214;-45
2022/06/09 15:00:35;;;;;;;10.48;3.10;;;;;;;;;;5136328;27;20229;-41
2022/06/09 15:03:02;;;;;;;9.68;3.13;;;;;;;;;;5137136;27;20236;-41
2022/06/09 15:05:31;;;;;;;6.68;2.72;;;;;;;;;;5136563;27;20237;-39
2022/06/09 15:07:59;;;;;;;8.82;3.42;;;;;;;;;;5135327;27;20645;-40
2022/06/09 15:10:30;;;;;;;8.55;3.28;;;;;;;;;;5134827;27;20225;-39
2022/06/09 15:12:57;;;;;;;7.63;2.95;;;;;;;;;;5114867;27;20243;-40
2022/06/09 15:15:24;;;;;;;26.73;5.57;;;;;;;;;;5134830;27;20634;-44
2022/06/09 15:17:53;;;;;;;15.68;5.07;;;;;;;;;;5135292;27;20317;-44
2022/06/09 15:20:23;;;;;;;20.55;8.18;;;;;;;;;;5135312;27;20221;-43
2022/06/09 15:22:51;;;;;;;24.77;10.23;;;;;;;;;;5132484;27;20247;-39
2022/06/09 15:25:19;;;;;;;13.10;7.45;;;;;;;;;;5125730;27;20734;-41
2022/06/09 15:27:47;;;;;;;13.35;7.00;;;;;;;;;;5134904;27;20229;-43
2022/06/09 15:30:20;;;;;;;15.32;5.63;;;;;;;;;;5135931;27;20229;-40